createdAt,value
2019-04-07T00:00:51.943Z,22.93
2019-04-07T00:03:21.350Z,23.45
2019-04-07T00:05:50.695Z,22.85
2019-04-07T00:08:20.511Z,21.45
2019-04-07T00:10:49.743Z,23.67
2019-04-07T00:13:18.944Z,22.22
2019-04-07T00:15:48.720Z,20.95
2019-04-07T00:18:18.304Z,22.52
2019-04-07T00:20:47.581Z,22.90
2019-04-07T00:23:17.613Z,25.68
2019-04-07T00:25:47.056Z,22.75
2019-04-07T00:28:16.259Z,23.07
2019-04-07T00:30:45.424Z,21.35
2019-04-07T00:33:14.592Z,20.88
2019-04-07T00:35:43.803Z,22.82
2019-04-07T00:38:13.149Z,20.95
2019-04-07T00:40:42.825Z,21.33
2019-04-07T00:43:12.131Z,21.93
2019-04-07T00:45:41.605Z,20.32
2019-04-07T00:48:11.096Z,19.37
2019-04-07T00:50:40.578Z,15.15
2019-04-07T00:53:09.869Z,22.73
2019-04-07T00:55:39.644Z,21.17
2019-04-07T00:58:08.882Z,20.25
2019-04-07T01:00:40.030Z,20.43
2019-04-07T01:03:09.503Z,21.50
2019-04-07T01:05:41.431Z,19.85
2019-04-07T01:08:09.759Z,20.48
2019-04-07T01:10:40.784Z,23.52
2019-04-07T01:13:10.738Z,21.20
2019-04-07T01:15:40.645Z,20.32
2019-04-07T01:18:10.056Z,22.42
2019-04-07T01:20:39.601Z,21.93
2019-04-07T01:23:08.865Z,23.70
2019-04-07T01:25:38.056Z,21.70
2019-04-07T01:28:07.233Z,22.85
2019-04-07T01:30:37.075Z,26.95
2019-04-07T01:33:06.439Z,26.45
2019-04-07T01:35:45.086Z,25.00
2019-04-07T01:38:07.254Z,25.70
2019-04-07T01:40:36.674Z,28.50
2019-04-07T01:43:33.995Z,28.57
2019-04-07T01:46:24.224Z,29.77
2019-04-07T01:49:15.099Z,28.20
2019-04-07T01:51:53.251Z,25.50
2019-04-07T01:54:42.052Z,31.00
2019-04-07T01:57:30.240Z,27.58
2019-04-07T02:00:06.212Z,28.67
2019-04-07T02:03:07.517Z,28.75
2019-04-07T02:06:08.019Z,27.70
2019-04-07T02:09:00.927Z,28.35
2019-04-07T02:11:48.003Z,23.98
2019-04-07T02:14:22.570Z,27.80
2019-04-07T02:17:08.388Z,28.60
2019-04-07T02:20:00.269Z,27.75
2019-04-07T02:22:47.479Z,25.10
2019-04-07T02:25:48.071Z,24.72
2019-04-07T02:28:51.649Z,23.92
2019-04-07T02:31:38.430Z,24.50
2019-04-07T02:34:15.618Z,22.75
2019-04-07T02:36:56.032Z,21.48
2019-04-07T02:39:37.173Z,22.20
2019-04-07T02:42:30.325Z,19.60
2019-04-07T02:45:10.970Z,22.20
2019-04-07T02:48:01.214Z,21.10
2019-04-07T02:50:55.397Z,21.95
2019-04-07T02:53:37.075Z,20.50
2019-04-07T02:56:29.319Z,21.75
2019-04-07T02:59:16.286Z,23.67
2019-04-07T03:02:12.046Z,22.20
2019-04-07T03:04:57.118Z,23.10
2019-04-07T03:07:47.231Z,23.57
2019-04-07T03:10:29.100Z,24.57
2019-04-07T03:13:17.360Z,24.95
2019-04-07T03:16:09.451Z,26.97
2019-04-07T03:18:47.178Z,22.93
2019-04-07T03:21:36.202Z,24.65
2019-04-07T03:24:17.005Z,26.17
2019-04-07T03:27:11.119Z,21.80
2019-04-07T03:29:59.083Z,23.57
2019-04-07T03:32:42.859Z,25.35
2019-04-07T03:35:13.168Z,25.57
2019-04-07T03:38:18.781Z,24.98
2019-04-07T03:41:16.243Z,26.48
2019-04-07T03:44:10.472Z,25.75
2019-04-07T03:47:07.675Z,28.20
2019-04-07T03:49:47.728Z,25.95
2019-04-07T03:52:25.017Z,24.67
2019-04-07T03:55:13.243Z,25.52
2019-04-07T03:58:01.654Z,22.77
2019-04-07T04:01:17.983Z,22.55
2019-04-07T04:03:59.439Z,21.95
2019-04-07T04:06:47.621Z,21.35
2019-04-07T04:09:26.365Z,22.13
2019-04-07T04:12:01.290Z,21.82
2019-04-07T04:14:37.660Z,22.87
2019-04-07T04:17:08.049Z,21.00
2019-04-07T04:19:37.712Z,21.95
2019-04-07T04:22:07.380Z,22.37
2019-04-07T04:24:36.873Z,24.40
2019-04-07T04:27:06.744Z,23.98
2019-04-07T04:29:35.963Z,23.85
2019-04-07T04:32:05.818Z,24.63
2019-04-07T04:34:35.192Z,23.25
2019-04-07T04:37:04.406Z,21.35
2019-04-07T04:39:33.568Z,22.95
2019-04-07T04:42:02.724Z,23.35
2019-04-07T04:44:31.889Z,20.95
2019-04-07T04:47:01.592Z,24.10
2019-04-07T04:49:33.225Z,26.12
2019-04-07T04:52:03.079Z,23.20
2019-04-07T04:54:33.355Z,21.62
2019-04-07T04:57:06.151Z,20.17
2019-04-07T04:59:33.516Z,25.00
2019-04-07T05:02:03.379Z,31.48
2019-04-07T05:04:32.778Z,29.75
2019-04-07T05:07:02.010Z,26.70
2019-04-07T05:09:41.142Z,27.93
2019-04-07T05:12:04.797Z,28.87
2019-04-07T05:14:33.348Z,28.65
2019-04-07T05:17:02.545Z,28.50
2019-04-07T05:19:32.299Z,29.32
2019-04-07T05:22:02.431Z,32.78
2019-04-07T05:24:32.248Z,29.77
2019-04-07T05:27:01.962Z,28.40
2019-04-07T05:29:31.270Z,24.25
2019-04-07T05:32:01.416Z,27.35
2019-04-07T05:34:31.141Z,27.27
2019-04-07T05:37:01.206Z,30.35
2019-04-07T05:39:30.907Z,26.33
2019-04-07T05:42:00.414Z,29.65
2019-04-07T05:44:29.632Z,29.75
2019-04-07T05:46:58.819Z,27.22
2019-04-07T05:49:28.226Z,27.98
2019-04-07T05:52:01.383Z,27.90
2019-04-07T05:54:28.647Z,25.85
2019-04-07T05:57:01.191Z,25.12
2019-04-07T05:59:28.896Z,27.22
2019-04-07T06:02:01.326Z,23.10
2019-04-07T06:04:29.225Z,25.02
2019-04-07T06:06:59.081Z,25.40
2019-04-07T06:09:29.545Z,24.23
2019-04-07T06:11:58.956Z,30.32
2019-04-07T06:14:28.102Z,40.88
2019-04-07T06:16:57.285Z,25.15
2019-04-07T06:19:26.523Z,23.55
2019-04-07T06:22:00.057Z,23.02
2019-04-07T06:24:31.648Z,22.62
2019-04-07T06:27:00.846Z,22.82
2019-04-07T06:29:30.286Z,18.98
2019-04-07T06:32:02.407Z,20.82
2019-04-07T06:34:30.568Z,23.85
2019-04-07T06:36:59.888Z,21.05
2019-04-07T06:39:31.889Z,20.00
2019-04-07T06:42:01.452Z,22.62
2019-04-07T06:44:31.383Z,22.30
2019-04-07T06:47:17.984Z,21.40
2019-04-07T06:50:10.013Z,21.40
2019-04-07T06:53:02.224Z,22.95
2019-04-07T06:55:49.711Z,23.10
2019-04-07T06:58:43.827Z,18.82
2019-04-07T07:01:47.676Z,18.60
2019-04-07T07:04:43.785Z,19.77
2019-04-07T07:07:32.635Z,21.57
2019-04-07T07:10:09.521Z,21.05
2019-04-07T07:13:11.560Z,20.97
2019-04-07T07:15:49.405Z,24.65
2019-04-07T07:18:47.113Z,25.37
2019-04-07T07:21:36.338Z,26.45
2019-04-07T07:24:04.968Z,23.73
2019-04-07T07:26:35.457Z,26.40
2019-04-07T07:29:06.409Z,26.82
2019-04-07T07:31:35.793Z,22.60
2019-04-07T07:34:05.161Z,23.62
2019-04-07T07:36:34.964Z,24.12
2019-04-07T07:39:10.208Z,25.05
2019-04-07T07:41:37.803Z,25.23
2019-04-07T07:44:08.493Z,25.62
2019-04-07T07:46:38.593Z,25.35
2019-04-07T07:49:07.751Z,23.50
2019-04-07T07:51:38.646Z,18.70
2019-04-07T07:54:07.809Z,21.10
2019-04-07T07:56:37.870Z,25.03
2019-04-07T07:59:08.697Z,22.87
2019-04-07T08:01:38.218Z,21.17
2019-04-07T08:04:07.493Z,21.23
2019-04-07T08:06:38.529Z,19.98
2019-04-07T08:09:13.701Z,21.02
2019-04-07T08:11:39.985Z,17.53
2019-04-07T08:14:09.977Z,17.67
2019-04-07T08:16:39.994Z,20.50
2019-04-07T08:19:10.262Z,16.90
2019-04-07T08:21:40.406Z,16.63
2019-04-07T08:24:11.321Z,17.83
2019-04-07T08:26:41.222Z,19.20
2019-04-07T08:29:12.570Z,17.07
2019-04-07T08:31:41.521Z,18.77
2019-04-07T08:34:10.977Z,16.27
2019-04-07T08:36:43.470Z,17.93
2019-04-07T08:39:21.496Z,18.03
2019-04-07T08:41:43.447Z,18.93
2019-04-07T08:44:12.830Z,19.97
2019-04-07T08:46:43.280Z,18.60
2019-04-07T08:49:12.905Z,16.83
2019-04-07T08:51:42.737Z,18.03
2019-04-07T08:54:15.732Z,18.93
2019-04-07T08:56:43.639Z,19.77
2019-04-07T08:59:16.701Z,16.27
2019-04-07T09:01:44.594Z,17.10
2019-04-07T09:04:16.526Z,17.30
2019-04-07T09:06:45.309Z,16.97
2019-04-07T09:09:14.475Z,21.40
2019-04-07T09:11:43.763Z,14.97
2019-04-07T09:14:15.094Z,15.23
2019-04-07T09:17:08.260Z,13.70
2019-04-07T09:19:45.786Z,12.00
2019-04-07T09:22:23.125Z,13.90
2019-04-07T09:25:17.268Z,13.73
2019-04-07T09:28:08.735Z,13.43
2019-04-07T09:31:06.351Z,14.00
2019-04-07T09:34:07.058Z,10.43
2019-04-07T09:36:55.685Z,12.50
2019-04-07T09:40:02.922Z,12.53
2019-04-07T09:42:50.793Z,13.17
2019-04-07T09:45:42.582Z,13.60
2019-04-07T09:48:30.794Z,12.03
2019-04-07T09:51:16.469Z,12.87
2019-04-07T09:54:19.205Z,12.80
2019-04-07T09:57:19.036Z,15.13
2019-04-07T10:00:09.977Z,12.30
2019-04-07T10:03:13.656Z,13.17
2019-04-07T10:05:59.364Z,14.00
2019-04-07T10:08:35.244Z,12.30
2019-04-07T10:11:27.429Z,13.23
2019-04-07T10:14:19.591Z,13.90
2019-04-07T10:17:08.751Z,13.13
2019-04-07T10:19:56.168Z,11.60
2019-04-07T10:22:40.369Z,12.30
2019-04-07T10:25:21.110Z,10.80
2019-04-07T10:28:11.026Z,11.57
2019-04-07T10:30:58.592Z,10.23
2019-04-07T10:33:35.761Z,10.27
2019-04-07T10:36:18.347Z,11.23
2019-04-07T10:39:07.204Z,12.67
2019-04-07T10:42:11.376Z,11.47
2019-04-07T10:45:09.153Z,12.00
2019-04-07T10:47:44.810Z,11.90
2019-04-07T10:50:24.628Z,12.13
2019-04-07T10:53:19.470Z,11.37
2019-04-07T10:56:07.391Z,13.23
2019-04-07T10:58:59.343Z,11.70
2019-04-07T11:01:38.806Z,11.63
2019-04-07T11:04:25.806Z,12.03
2019-04-07T11:07:06.448Z,12.70
2019-04-07T11:09:58.935Z,12.70
2019-04-07T11:12:50.277Z,13.60
2019-04-07T11:15:36.985Z,12.20
2019-04-07T11:18:14.492Z,12.00
2019-04-07T11:21:04.671Z,12.27
2019-04-07T11:23:45.246Z,13.17
2019-04-07T11:26:40.307Z,14.17
2019-04-07T11:29:29.519Z,11.20
2019-04-07T11:32:07.669Z,12.97
2019-04-07T11:34:47.457Z,12.60
2019-04-07T11:37:40.767Z,12.43
2019-04-07T11:40:42.602Z,11.17
2019-04-07T11:43:28.406Z,11.33
2019-04-07T11:46:20.454Z,12.90
2019-04-07T11:49:13.468Z,10.70
2019-04-07T11:51:49.960Z,11.93
2019-04-07T11:54:26.082Z,11.00
2019-04-07T11:57:15.705Z,11.00
2019-04-07T12:00:03.956Z,11.70
2019-04-07T12:02:45.481Z,12.33
2019-04-07T12:05:42.949Z,11.43
2019-04-07T12:08:35.162Z,12.53
2019-04-07T12:11:18.690Z,11.90
2019-04-07T12:14:17.810Z,10.93
2019-04-07T12:17:13.811Z,12.20
2019-04-07T12:20:04.258Z,11.87
2019-04-07T12:22:55.028Z,8.30
2019-04-07T12:25:56.882Z,10.97
2019-04-07T12:28:56.135Z,10.27
2019-04-07T12:31:45.130Z,9.73
2019-04-07T12:34:26.440Z,9.63
2019-04-07T12:37:11.661Z,8.63
2019-04-07T12:40:12.943Z,10.70
2019-04-07T12:42:59.554Z,8.90
2019-04-07T12:45:58.090Z,9.13
2019-04-07T12:48:41.054Z,8.40
2019-04-07T12:51:29.314Z,8.50
2019-04-07T12:54:07.538Z,8.83
2019-04-07T12:56:49.186Z,8.67
2019-04-07T12:59:39.210Z,8.13
2019-04-07T13:02:28.420Z,11.10
2019-04-07T13:05:24.352Z,9.17
2019-04-07T13:08:12.697Z,9.60
2019-04-07T13:10:54.563Z,8.70
2019-04-07T13:13:45.749Z,8.77
2019-04-07T13:16:25.384Z,6.73
2019-04-07T13:19:17.764Z,7.80
2019-04-07T13:22:00.805Z,8.63
2019-04-07T13:24:48.679Z,7.47
2019-04-07T13:27:29.695Z,7.23
2019-04-07T13:30:20.267Z,5.97
2019-04-07T13:33:08.109Z,7.40
2019-04-07T13:35:55.059Z,7.47
2019-04-07T13:38:47.413Z,6.60
2019-04-07T13:41:44.912Z,6.93
2019-04-07T13:44:36.727Z,6.13
2019-04-07T13:47:16.638Z,6.83
2019-04-07T13:50:07.642Z,6.83
2019-04-07T13:53:02.905Z,6.20
2019-04-07T13:56:14.729Z,6.47
2019-04-07T13:58:50.855Z,6.53
2019-04-07T14:01:39.715Z,5.87
2019-04-07T14:04:27.873Z,6.47
2019-04-07T14:07:11.730Z,7.37
2019-04-07T14:09:50.763Z,6.23
2019-04-07T14:12:33.724Z,7.27
2019-04-07T14:15:30.161Z,6.40
2019-04-07T14:18:36.703Z,7.53
2019-04-07T14:21:24.972Z,8.40
2019-04-07T14:24:12.118Z,7.43
2019-04-07T14:27:08.598Z,8.80
2019-04-07T14:30:00.348Z,8.60
2019-04-07T14:32:49.790Z,8.73
2019-04-07T14:35:37.485Z,9.03
2019-04-07T14:38:35.562Z,7.93
2019-04-07T14:41:14.811Z,8.03
2019-04-07T14:44:02.060Z,8.70
2019-04-07T14:46:54.054Z,8.00
2019-04-07T14:49:42.381Z,7.73
2019-04-07T14:52:25.268Z,7.97
2019-04-07T14:55:23.762Z,7.50
2019-04-07T14:58:13.106Z,7.10
2019-04-07T15:01:02.554Z,8.10
2019-04-07T15:03:29.210Z,8.77
2019-04-07T15:05:59.617Z,8.03
2019-04-07T15:08:37.264Z,9.13
2019-04-07T15:11:25.279Z,7.70
2019-04-07T15:13:58.318Z,8.47
2019-04-07T15:16:28.556Z,7.50
2019-04-07T15:18:58.704Z,7.40
2019-04-07T15:21:27.977Z,7.60
2019-04-07T15:23:59.274Z,7.00
2019-04-07T15:26:28.253Z,8.70
2019-04-07T15:28:58.890Z,6.70
2019-04-07T15:31:28.758Z,7.23
2019-04-07T15:33:57.902Z,7.47
2019-04-07T15:36:27.600Z,8.57
2019-04-07T15:38:58.136Z,7.40
2019-04-07T15:41:28.039Z,9.50
2019-04-07T15:43:57.366Z,8.27
2019-04-07T15:46:26.886Z,6.33
2019-04-07T15:48:57.018Z,7.90
2019-04-07T15:51:26.383Z,7.17
2019-04-07T15:53:56.485Z,9.00
2019-04-07T15:56:26.034Z,7.10
2019-04-07T15:58:58.103Z,8.60
2019-04-07T16:01:26.909Z,6.40
2019-04-07T16:03:57.030Z,6.30
2019-04-07T16:06:26.422Z,8.17
2019-04-07T16:08:58.829Z,8.07
2019-04-07T16:11:29.356Z,7.23
2019-04-07T16:13:58.344Z,7.20
2019-04-07T16:16:29.315Z,8.20
2019-04-07T16:18:59.351Z,7.00
2019-04-07T16:21:29.781Z,7.10
2019-04-07T16:23:59.478Z,7.17
2019-04-07T16:26:31.202Z,7.50
2019-04-07T16:28:59.577Z,7.90
2019-04-07T16:31:28.771Z,7.00
2019-04-07T16:34:00.284Z,6.20
2019-04-07T16:36:30.252Z,7.87
2019-04-07T16:39:01.898Z,5.90
2019-04-07T16:41:30.464Z,6.20
2019-04-07T16:44:03.480Z,6.27
2019-04-07T16:46:31.533Z,6.50
2019-04-07T16:49:01.727Z,7.03
2019-04-07T16:51:33.643Z,7.90
2019-04-07T16:54:02.759Z,6.67
2019-04-07T16:56:32.308Z,8.67
2019-04-07T16:59:02.652Z,5.60
2019-04-07T17:01:32.231Z,5.30
2019-04-07T17:04:01.422Z,5.70
2019-04-07T17:06:34.719Z,6.40
2019-04-07T17:09:02.449Z,6.40
2019-04-07T17:11:32.326Z,6.27
2019-04-07T17:14:02.915Z,6.40
2019-04-07T17:16:33.409Z,7.77
2019-04-07T17:19:04.152Z,7.53
2019-04-07T17:21:33.317Z,6.57
2019-04-07T17:24:04.040Z,6.90
2019-04-07T17:26:35.380Z,6.63
2019-04-07T17:29:04.979Z,8.07
2019-04-07T17:31:34.798Z,7.63
2019-04-07T17:34:07.327Z,7.43
2019-04-07T17:36:35.445Z,6.77
2019-04-07T17:39:25.993Z,8.43
2019-04-07T17:41:57.332Z,9.17
2019-04-07T17:44:48.344Z,9.20
2019-04-07T17:47:31.445Z,9.40
2019-04-07T17:50:17.891Z,11.03
2019-04-07T17:53:14.159Z,9.10
2019-04-07T17:55:59.826Z,10.50
2019-04-07T17:58:57.345Z,9.33
2019-04-07T18:01:33.518Z,8.23
2019-04-07T18:04:27.934Z,9.33
2019-04-07T18:07:15.190Z,9.53
2019-04-07T18:10:15.489Z,9.10
2019-04-07T18:13:10.776Z,11.00
2019-04-07T18:15:52.035Z,10.07
2019-04-07T18:18:51.725Z,9.83
2019-04-07T18:21:39.773Z,9.60
2019-04-07T18:24:15.160Z,10.13
2019-04-07T18:26:56.996Z,10.00
2019-04-07T18:29:34.292Z,9.27
2019-04-07T18:32:31.918Z,8.50
2019-04-07T18:35:23.765Z,9.23
2019-04-07T18:38:10.254Z,9.30
2019-04-07T18:41:00.410Z,8.63
2019-04-07T18:44:02.347Z,9.37
2019-04-07T18:46:47.663Z,10.47
2019-04-07T18:49:32.958Z,10.10
2019-04-07T18:52:37.856Z,10.17
2019-04-07T18:55:27.294Z,8.93
2019-04-07T18:58:15.408Z,8.50
2019-04-07T19:01:15.787Z,9.17
2019-04-07T19:04:01.184Z,7.50
2019-04-07T19:06:41.159Z,7.00
2019-04-07T19:09:32.330Z,8.00
2019-04-07T19:12:28.866Z,8.13
2019-04-07T19:15:17.940Z,8.00
2019-04-07T19:18:04.632Z,7.60
2019-04-07T19:20:50.108Z,8.57
2019-04-07T19:23:44.099Z,7.40
2019-04-07T19:26:33.516Z,7.60
2019-04-07T19:29:25.132Z,7.03
2019-04-07T19:32:23.487Z,7.20
2019-04-07T19:35:15.154Z,7.47
2019-04-07T19:37:53.933Z,8.15
2019-04-07T19:40:49.233Z,7.00
2019-04-07T19:43:37.131Z,8.25
2019-04-07T19:46:28.197Z,4.83
2019-04-07T19:49:17.842Z,6.53
2019-04-07T19:51:51.694Z,7.12
2019-04-07T19:54:51.462Z,6.40
2019-04-07T19:57:38.560Z,7.87
2019-04-07T20:00:28.911Z,6.77
2019-04-07T20:03:17.929Z,5.50
2019-04-07T20:06:09.335Z,5.07
2019-04-07T20:09:09.867Z,6.70
2019-04-07T20:11:52.796Z,5.57
2019-04-07T20:15:01.466Z,6.10
2019-04-07T20:17:50.565Z,5.50
2019-04-07T20:20:35.810Z,6.40
2019-04-07T20:23:32.179Z,6.93
2019-04-07T20:26:35.097Z,5.28
2019-04-07T20:29:32.486Z,5.47
2019-04-07T20:32:18.617Z,4.97
2019-04-07T20:35:10.947Z,5.57
2019-04-07T20:38:06.288Z,5.60
2019-04-07T20:41:04.115Z,5.80
2019-04-07T20:44:01.560Z,5.33
2019-04-07T20:46:44.819Z,5.10
2019-04-07T20:49:35.679Z,5.07
2019-04-07T20:52:42.758Z,4.30
2019-04-07T20:55:24.821Z,5.33
2019-04-07T20:58:23.804Z,3.87
2019-04-07T21:01:10.993Z,4.73
2019-04-07T21:04:02.321Z,4.50
2019-04-07T21:06:50.789Z,3.77
2019-04-07T21:09:33.368Z,4.53
2019-04-07T21:12:32.416Z,4.40
2019-04-07T21:15:31.037Z,3.60
2019-04-07T21:18:14.730Z,3.17
2019-04-07T21:21:15.177Z,4.00
2019-04-07T21:24:18.199Z,2.87
2019-04-07T21:27:03.806Z,3.50
2019-04-07T21:29:41.413Z,2.50
2019-04-07T21:32:19.039Z,3.47
2019-04-07T21:35:13.215Z,3.70
2019-04-07T21:38:21.559Z,3.30
2019-04-07T21:41:01.940Z,3.80
2019-04-07T21:43:38.368Z,3.33
2019-04-07T21:46:32.614Z,3.75
2019-04-07T21:49:32.784Z,3.50
2019-04-07T21:52:08.222Z,4.15
2019-04-07T21:54:59.837Z,3.80
2019-04-07T21:57:43.783Z,4.45
2019-04-07T22:03:27.165Z,3.20
2019-04-07T22:06:18.344Z,2.95
2019-04-07T22:08:52.571Z,3.02
2019-04-07T22:11:24.706Z,4.03
2019-04-07T22:13:53.363Z,3.23
2019-04-07T22:16:24.220Z,3.22
2019-04-07T22:18:53.595Z,3.10
2019-04-07T22:21:24.060Z,3.00
2019-04-07T22:23:54.187Z,2.95
2019-04-07T22:26:23.423Z,4.08
2019-04-07T22:28:52.561Z,3.33
2019-04-07T22:31:27.004Z,3.20
2019-04-07T22:33:58.384Z,2.80
2019-04-07T22:36:27.331Z,3.80
2019-04-07T22:38:59.745Z,3.70
2019-04-07T22:41:28.166Z,3.57
2019-04-07T22:43:57.498Z,2.93
2019-04-07T22:46:27.393Z,3.58
2019-04-07T22:48:58.456Z,3.70
2019-04-07T22:51:28.549Z,3.75
2019-04-07T22:53:58.703Z,3.05
2019-04-07T22:56:28.400Z,3.43
2019-04-07T22:58:57.596Z,4.03
2019-04-07T23:01:27.198Z,4.47
2019-04-07T23:03:56.461Z,3.37
2019-04-07T23:06:26.589Z,3.58
2019-04-07T23:08:55.821Z,4.08
2019-04-07T23:11:25.771Z,3.92
2019-04-07T23:13:55.490Z,3.90
2019-04-07T23:16:24.653Z,3.37
2019-04-07T23:18:54.169Z,3.20
2019-04-07T23:21:23.768Z,3.55
2019-04-07T23:23:53.879Z,3.65
2019-04-07T23:26:23.024Z,3.95
2019-04-07T23:28:52.201Z,2.98
2019-04-07T23:31:21.538Z,3.02
2019-04-07T23:33:50.713Z,2.50
2019-04-07T23:36:20.091Z,2.87
2019-04-07T23:38:49.638Z,3.52
2019-04-07T23:41:18.874Z,3.12
2019-04-07T23:43:48.326Z,3.20
2019-04-07T23:46:23.183Z,2.75
2019-04-07T23:48:49.628Z,3.55
2019-04-07T23:51:19.001Z,2.73
2019-04-07T23:54:14.420Z,3.40
2019-04-07T23:56:45.808Z,3.02
2019-04-07T23:59:15.178Z,2.65
